Terminal Aerodrome Forecast
Issued by NWS Blacksburg, VA

Current Version | Previous Version | Graphics & Text | Print | Product List | Glossary On
Versions: 1 2 3 4 5 6 7 8 9 10 11 12 13 14 15 16 17 18 19 20 21 22 23 24 25 26 27 28 29 30 31 32 33 34 35 36 37 38 39 40 41 42 43 44
000
FTUS41 KRNK 220630 AAA
TAFBLF
TAF AMD
KBLF 220630Z 2207/2306 00000KT 1/4SM FG VV002
     FM221000 10005KT 3/4SM BR SCT002 OVC005
     FM221200 11006KT 4SM -SHRA BR SCT004 OVC007
     FM222000 13008G16KT 6SM -SHRA BR OVC020
     FM230200 12010G20KT 1SM SHRA BR BKN007 OVC012=

USA.gov is the U.S. government's official web portal to all federal, state and local government web resources and services.